Latest Coastal Weather Observations for Pirlangimpi (Garden Point)

IDD60701

Issued at 7:15 pm CST Monday 20 October 2014 (issued every 10 minutes, with the page automatically refreshed every 10 minutes)

About coastal observations | Map of coastal stations | Coastal observations for NT | Marine services | Other Formats
Station Details ID: 014142 Name: PIRLANGIMPI AIRPORT Lat: -11.40 Lon: 130.42 Height: 18.3 m
Data from the previous 72 hours. | See also: Recent months at Pirlangimpi (Garden Point)
Date/Time
CST
Temp

°C
Wind Pressure Rain
since 9am
mm
Weather Cloud Vis
km
Sea
Height
m
Swell
Dir
 
Speed
knots
Gust
knots
hPa Trend Height
m
Period
s
Dir
20/07:00pm 27.8 N 2 4 1011.7 - 0.0 - - - - - - -
20/06:30pm 28.6 N 3 9 1011.1 - 0.0 - - - - - - -
20/06:00pm 29.4 NNE 5 12 1010.6 - 0.0 - - - - - - -
20/05:30pm 31.4 NE 7 12 1010.1 - 0.0 - - - - - - -
20/05:00pm 32.0 NE 7 11 1009.9 - 0.0 - - - - - - -
20/04:30pm 32.1 NNE 6 13 1009.9 - 0.0 - - - - - - -
20/04:00pm 33.1 NNE 6 14 1009.9 - 0.0 - - - - - - -
20/03:30pm 34.3 NE 7 15 1010.0 - 0.0 - - - - - - -
20/03:00pm 34.9 NE 7 14 1010.2 - 0.0 - - - - - - -
20/02:30pm 35.5 NE 7 13 1010.4 - 0.0 - - - - - - -
20/02:00pm 34.3 NE 8 14 1010.7 - 0.0 - - - - - - -
20/01:30pm 34.4 NE 8 17 1011.4 - 0.0 - - - - - - -
20/01:00pm 35.3 NE 7 13 1012.0 - 0.0 - - - - - - -
20/12:30pm 35.0 ENE 6 17 1012.6 - 0.0 - - - - - - -
20/12:00pm 35.2 ENE 7 12 1013.3 - 0.0 - - - - - - -
20/11:30am 34.1 E 6 13 1013.8 - 0.0 - - - - - - -
20/11:00am 33.6 E 6 13 1014.2 - 0.0 - - - - - - -
20/10:30am 33.6 ENE 5 10 1014.5 - 0.0 - - - - - - -
20/10:00am 32.6 ENE 7 13 1014.8 - 0.0 - - - - - - -
20/09:30am 31.4 ENE 8 12 1014.8 - 0.0 - - - - - - -
20/09:00am 29.8 ENE 7 10 1014.8 - 0.0 - - - - - - -
20/08:30am 29.2 E 4 7 1014.9 - 0.0 - - - - - - -
20/08:00am 27.0 E 1 3 1014.6 - 0.0 - - - - - - -
20/07:30am 25.5 SSE 1 3 1014.3 - 0.0 - - - - - - -
20/07:00am 25.2 S 1 2 1013.9 - 0.0 - - - - - - -
20/06:30am 24.8 SE 1 2 1013.5 - 0.0 - - - - - - -
20/06:00am 25.0 SE 2 3 1013.4 - 0.0 - - - - - - -
20/05:30am 24.5 CALM 0 0 1013.1 - 0.0 - - - - - - -
20/05:00am 24.4 SE 2 2 1013.1 - 0.0 - - - - - - -
20/04:30am 24.3 CALM 0 0 1012.7 - 0.0 - - - - - - -
20/04:00am 24.4 CALM 0 0 1012.4 - 0.0 - - - - - - -
20/03:30am 25.1 CALM 0 0 1012.5 - 0.0 - - - - - - -
20/03:00am 25.3 CALM 0 0 1012.5 - 0.0 - - - - - - -
20/02:30am 25.2 SE 2 4 1012.6 - 0.0 - - - - - - -
20/02:00am 24.4 CALM 0 3 1012.8 - 0.0 - - - - - - -
20/01:30am 24.3 CALM 0 0 1013.0 - 0.0 - - - - - - -
20/01:00am 24.2 CALM 0 0 1013.4 - 0.0 - - - - - - -
20/12:30am 24.4 CALM 0 0 1013.6 - 0.0 - - - - - - -
20/12:00am 24.6 ENE 0 0 1013.7 - 0.0 - - - - - - -
 
Date/Time
CST
Temp

°C
Wind Pressure Rain
since 9am
mm
Weather Cloud Vis
km
Sea
Height
m
Swell
Dir
 
Speed
knots
Gust
knots
hPa Trend Height
m
Period
s
Dir
19/11:30pm 24.9 CALM 0 0 1013.8 - 0.0 - - - - - - -
19/11:00pm 25.2 CALM 0 0 1013.8 - 0.0 - - - - - - -
19/10:30pm 25.7 CALM 0 0 1013.7 - 0.0 - - - - - - -
19/10:00pm 26.1 CALM 0 1 1013.2 - 0.0 - - - - - - -
19/09:30pm 26.6 NNE 1 3 1012.8 - 0.0 - - - - - - -
19/09:00pm 26.9 NE 4 9 1012.4 - 0.0 - - - - - - -
19/08:30pm 27.0 NE 4 9 1012.1 - 0.0 - - - - - - -
19/08:00pm 27.2 NE 5 9 1011.7 - 0.0 - - - - - - -
19/07:30pm 27.5 NE 7 14 1011.3 - 0.0 - - - - - - -
19/07:00pm 27.8 NE 6 10 1011.0 - 0.0 - - - - - - -
19/06:30pm 28.5 NE 9 16 1010.8 - 0.0 - - - - - - -
19/06:00pm 29.1 NE 6 12 1010.6 - 0.0 - - - - - - -
19/05:30pm 30.4 NE 8 14 1010.4 - 0.0 - - - - - - -
19/05:00pm 30.6 NE 9 17 1010.2 - 0.0 - - - - - - -
19/04:30pm 30.4 NE 9 15 1010.2 - 0.0 - - - - - - -
19/04:00pm 30.8 NNE 6 12 1010.2 - 0.0 - - - - - - -
19/03:30pm 30.6 NE 7 13 1010.3 - 0.0 - - - - - - -
19/03:00pm 31.8 NNE 9 16 1010.1 - 0.0 - - - - - - -
19/02:30pm 33.5 NNE 8 14 1010.2 - 0.0 - - - - - - -
19/02:00pm 34.1 NE 9 18 1010.5 - 0.0 - - - - - - -
19/01:30pm 33.9 NNE 8 14 1010.8 - 0.0 - - - - - - -
19/01:00pm 35.0 NNE 7 13 1011.4 - 0.0 - - - - - - -
19/12:30pm 36.3 NE 6 11 1011.9 - 0.0 - - - - - - -
19/12:00pm 34.9 E 8 13 1012.4 - 0.0 - - - - - - -
19/11:30am 35.1 E 6 10 1012.9 - 0.0 - - - - - - -
19/11:00am 32.8 ESE 5 10 1013.6 - 0.0 - - - - - - -
19/10:30am 32.5 ENE 6 11 1013.9 - 0.0 - - - - - - -
19/10:00am 32.0 ENE 7 13 1014.1 - 0.0 - - - - - - -
19/09:30am 31.0 ENE 9 13 1014.3 - 0.0 - - - - - - -
19/09:00am 30.5 E 7 12 1014.3 - 0.0 - - - - - - -
19/08:30am 29.0 ESE 5 9 1014.1 - 0.0 - - - - - - -
19/08:00am 27.4 E 2 5 1013.9 - 0.0 - - - - - - -
19/07:30am 25.3 SSE 2 4 1013.5 - 0.0 - - - - - - -
19/07:00am 24.6 ESE 2 3 1013.1 - 0.0 - - - - - - -
19/06:30am 24.2 ESE 3 4 1012.9 - 0.0 - - - - - - -
19/06:00am 23.6 SE 2 4 1012.5 - 0.0 - - - - - - -
19/05:30am 23.7 SSE 3 5 1012.3 - 0.0 - - - - - - -
19/05:00am 23.9 SE 3 4 1012.2 - 0.0 - - - - - - -
19/04:30am 23.9 ESE 3 5 1011.9 - 0.0 - - - - - - -
19/04:00am 23.7 SE 2 3 1011.6 - 0.0 - - - - - - -
19/03:30am 23.7 SE 3 5 1011.6 - 0.0 - - - - - - -
19/03:00am 22.8 ESE 2 3 1011.4 - 0.0 - - - - - - -
19/02:30am 22.6 CALM 0 0 1011.4 - 0.0 - - - - - - -
19/02:00am 22.7 CALM 0 0 1011.6 - 0.0 - - - - - - -
19/01:30am 23.0 CALM 0 0 1011.7 - 0.0 - - - - - - -
19/01:00am 23.1 CALM 0 0 1012.0 - 0.0 - - - - - - -
19/12:30am 23.2 CALM 0 0 1012.2 - 0.0 - - - - - - -
19/12:00am 23.3 CALM 0 0 1012.4 - 0.0 - - - - - - -
 
Date/Time
CST
Temp

°C
Wind Pressure Rain
since 9am
mm
Weather Cloud Vis
km
Sea
Height
m
Swell
Dir
 
Speed
knots
Gust
knots
hPa Trend Height
m
Period
s
Dir
18/11:30pm 23.6 CALM 0 0 1012.6 - 0.0 - - - - - - -
18/11:00pm 24.0 CALM 0 0 1012.6 - 0.0 - - - - - - -
18/10:30pm 24.4 CALM 0 0 1012.5 - 0.0 - - - - - - -
18/10:00pm 24.8 CALM 0 0 1012.4 - 0.0 - - - - - - -
18/09:30pm 25.3 NNE 2 3 1012.3 - 0.0 - - - - - - -
18/09:00pm 25.5 N 1 3 1012.0 - 0.0 - - - - - - -
18/08:30pm 26.1 N 2 3 1011.9 - 0.0 - - - - - - -
18/08:00pm 26.5 N 1 3 1011.7 - 0.0 - - - - - - -
18/07:30pm 27.3 NNE 2 4 1011.5 - 0.0 - - - - - - -
18/07:00pm 27.8 NNE 3 5 1011.2 - 0.0 - - - - - - -
18/06:30pm 28.7 NNE 3 6 1010.9 - 0.0 - - - - - - -
18/06:00pm 29.7 NNE 3 7 1010.5 - 0.0 - - - - - - -
18/05:30pm 31.4 NNE 4 9 1010.3 - 0.0 - - - - - - -
18/05:00pm 32.3 NE 5 8 1010.0 - 0.0 - - - - - - -
18/04:30pm 33.1 NE 6 9 1009.9 - 0.0 - - - - - - -
18/04:00pm 34.7 NE 6 12 1009.6 - 0.0 - - - - - - -
18/03:30pm 34.6 N 5 10 1009.7 - 0.0 - - - - - - -
18/03:00pm 35.0 NE 5 11 1009.8 - 0.0 - - - - - - -
18/02:30pm 34.9 NNE 6 11 1010.0 - 0.0 - - - - - - -
18/02:00pm 35.8 NE 6 12 1010.2 - 0.0 - - - - - - -
18/01:30pm 37.9 ENE 8 14 1010.6 - 0.0 - - - - - - -
18/01:00pm 35.7 E 8 14 1011.3 - 0.0 - - - - - - -
18/12:30pm 35.7 ENE 5 10 1012.2 - 0.0 - - - - - - -
18/12:00pm 35.5 ENE 7 12 1012.8 - 0.0 - - - - - - -
18/11:30am 34.3 ENE 6 11 1013.2 - 0.0 - - - - - - -
18/11:00am 33.9 NE 6 11 1013.6 - 0.0 - - - - - - -
18/10:30am 34.3 ENE 5 10 1013.8 - 0.0 - - - - - - -
18/10:00am 32.8 ENE 5 8 1014.0 - 0.0 - - - - - - -
18/09:30am 30.6 E 6 9 1014.0 - 0.0 - - - - - - -
18/09:00am 29.9 E 4 7 1014.2 - 0.0 - - - - - - -
18/08:30am 28.3 E 5 8 1014.1 - 0.0 - - - - - - -
18/08:00am 26.8 E 3 5 1014.2 - 0.0 - - - - - - -
18/07:30am 24.8 E 3 4 1013.8 - 0.0 - - - - - - -
18/07:00am 23.4 E 4 5 1013.5 - 0.0 - - - - - - -
18/06:30am 20.5 E 3 4 1013.0 - 0.0 - - - - - - -
18/06:00am 20.3 E 1 4 1012.6 - 0.0 - - - - - - -
18/05:30am 20.6 CALM 0 0 1012.5 - 0.0 - - - - - - -
18/05:00am 21.1 E 2 3 1012.1 - 0.0 - - - - - - -
18/04:30am 21.3 SE 2 4 1011.9 - 0.0 - - - - - - -
18/04:00am 21.7 SE 2 2 1011.8 - 0.0 - - - - - - -
18/03:30am 20.6 SE 2 3 1011.7 - 0.0 - - - - - - -
18/03:00am 20.9 CALM 0 0 1011.7 - 0.0 - - - - - - -
18/02:30am 21.1 E 1 1 1011.8 - 0.0 - - - - - - -
18/02:00am 21.1 ESE 1 2 1012.0 - 0.0 - - - - - - -
18/01:30am 21.2 CALM 0 2 1012.3 - 0.0 - - - - - - -
18/01:00am 21.3 CALM 0 0 1012.5 - 0.0 - - - - - - -
18/12:30am 21.7 CALM 0 0 1012.7 - 0.0 - - - - - - -
18/12:00am 21.9 CALM 0 0 1012.7 - 0.0 - - - - - - -
 
Date/Time
CST
Temp

°C
Wind Pressure Rain
since 9am
mm
Weather Cloud Vis
km
Sea
Height
m
Swell
Dir
 
Speed
knots
Gust
knots
hPa Trend Height
m
Period
s
Dir
17/11:30pm 22.1 CALM 0 0 1012.8 - 0.0 - - - - - - -
17/11:00pm 22.4 CALM 0 0 1012.9 - 0.0 - - - - - - -
17/10:30pm 22.7 CALM 0 0 1012.8 - 0.0 - - - - - - -
17/10:00pm 23.1 CALM 0 0 1012.8 - 0.0 - - - - - - -
17/09:30pm 23.4 CALM 0 0 1012.6 - 0.0 - - - - - - -
17/09:00pm 23.9 CALM 0 0 1012.4 - 0.0 - - - - - - -
17/08:30pm 24.4 CALM 0 0 1012.3 - 0.0 - - - - - - -
17/08:00pm 25.3 N 1 2 1012.1 - 0.0 - - - - - - -
17/07:30pm 26.5 N 2 3 1011.9 - 0.0 - - - - - - -

Other Formats:

Comma delimited format used in spreadsheet applications
http://www.bom.gov.au/fwo/IDD60701/IDD60701.94119.axf

JavaScript Object Notation format (JSON) in row-major order
http://www.bom.gov.au/fwo/IDD60701/IDD60701.94119.json